createdAt,value
2024-05-09T00:01:25.703Z,9.99
2024-05-09T00:04:32.059Z,10.10
2024-05-09T00:07:38.292Z,10.10
2024-05-09T00:10:44.943Z,10.04
2024-05-09T00:13:51.350Z,9.85
2024-05-09T00:16:57.249Z,9.61
2024-05-09T00:20:09.079Z,9.49
2024-05-09T00:23:07.992Z,9.46
2024-05-09T00:26:14.670Z,9.46
2024-05-09T00:29:21.207Z,9.38
2024-05-09T00:32:29.105Z,9.31
2024-05-09T00:35:35.886Z,9.25
2024-05-09T00:38:42.429Z,9.16
2024-05-09T00:41:48.650Z,9.16
2024-05-09T00:44:55.157Z,9.27
2024-05-09T00:48:02.030Z,9.42
2024-05-09T00:51:08.683Z,9.50
2024-05-09T00:54:15.050Z,9.48
2024-05-09T00:57:24.223Z,9.28
2024-05-09T01:00:38.547Z,9.04
2024-05-09T01:03:40.430Z,8.90
2024-05-09T01:06:46.818Z,8.96
2024-05-09T01:09:53.215Z,9.06
2024-05-09T01:12:56.134Z,9.12
2024-05-09T01:16:03.988Z,8.99
2024-05-09T01:19:10.482Z,8.81
2024-05-09T01:22:16.913Z,8.75
2024-05-09T01:25:23.444Z,8.65
2024-05-09T01:28:32.873Z,8.54
2024-05-09T01:31:39.381Z,8.51
2024-05-09T01:34:45.854Z,8.47
2024-05-09T01:37:52.533Z,8.45
2024-05-09T01:40:58.911Z,8.48
2024-05-09T01:44:06.956Z,8.50
2024-05-09T01:47:13.254Z,8.39
2024-05-09T01:50:35.708Z,8.28
2024-05-09T01:53:27.041Z,8.15
2024-05-09T01:56:33.527Z,8.10
2024-05-09T01:59:40.015Z,8.07
2024-05-09T02:02:46.386Z,8.08
2024-05-09T02:05:52.747Z,8.08
2024-05-09T02:08:59.081Z,8.17
2024-05-09T02:12:07.016Z,8.18
2024-05-09T02:15:13.606Z,8.18
2024-05-09T02:18:19.948Z,8.15
2024-05-09T02:21:26.564Z,8.10
2024-05-09T02:24:33.007Z,7.99
2024-05-09T02:27:39.212Z,7.96
2024-05-09T02:30:45.701Z,7.94
2024-05-09T02:33:52.379Z,7.99
2024-05-09T02:36:59.174Z,7.97
2024-05-09T02:40:07.099Z,8.04
2024-05-09T02:43:06.558Z,8.11
2024-05-09T02:46:13.191Z,8.11
2024-05-09T02:49:19.975Z,8.11
2024-05-09T02:52:26.590Z,7.96
2024-05-09T02:55:33.303Z,7.87
2024-05-09T02:58:39.772Z,7.94
2024-05-09T03:01:46.145Z,8.03
2024-05-09T03:04:52.622Z,8.03
2024-05-09T03:07:58.920Z,8.02
2024-05-09T03:11:05.350Z,8.10
2024-05-09T03:14:13.240Z,8.04
2024-05-09T03:17:19.439Z,7.89
2024-05-09T03:20:32.553Z,7.62
2024-05-09T03:23:30.682Z,7.40
2024-05-09T03:26:37.257Z,7.22
2024-05-09T03:29:43.862Z,7.15
2024-05-09T03:32:50.250Z,7.16
2024-05-09T03:35:56.595Z,7.19
2024-05-09T03:39:03.163Z,7.23
2024-05-09T03:42:09.576Z,7.38
2024-05-09T03:45:17.402Z,7.42
2024-05-09T03:48:23.948Z,7.41
2024-05-09T03:51:30.281Z,7.40
2024-05-09T03:54:36.645Z,7.37
2024-05-09T03:57:43.140Z,7.35
2024-05-09T04:00:49.845Z,7.35
2024-05-09T04:03:56.193Z,7.34
2024-05-09T04:06:58.065Z,7.35
2024-05-09T04:09:57.619Z,7.35
2024-05-09T04:13:05.451Z,7.40
2024-05-09T04:16:11.803Z,7.41
2024-05-09T04:19:18.480Z,7.49
2024-05-09T04:22:24.805Z,7.53
2024-05-09T04:25:31.078Z,7.67
2024-05-09T04:28:31.911Z,7.77
2024-05-09T04:31:38.442Z,7.77
2024-05-09T04:34:44.835Z,7.78
2024-05-09T04:37:51.535Z,7.75
2024-05-09T04:40:58.627Z,7.81
2024-05-09T04:44:06.310Z,7.79
2024-05-09T04:47:12.726Z,7.82
2024-05-09T04:50:28.937Z,7.85
2024-05-09T04:53:22.355Z,7.89
2024-05-09T04:56:28.532Z,7.93
2024-05-09T04:59:34.890Z,7.99
2024-05-09T05:02:41.416Z,8.10
2024-05-09T05:05:47.836Z,8.18
2024-05-09T05:08:54.079Z,8.28
2024-05-09T05:12:00.403Z,8.37
2024-05-09T05:15:09.991Z,8.51
2024-05-09T05:18:16.804Z,8.66
2024-05-09T05:21:23.432Z,8.81
2024-05-09T05:24:29.980Z,8.88
2024-05-09T05:27:31.279Z,8.99
2024-05-09T05:30:37.950Z,9.15
2024-05-09T05:33:44.512Z,9.28
2024-05-09T05:36:50.965Z,9.49
2024-05-09T05:39:57.743Z,9.67
2024-05-09T05:43:05.746Z,9.91
2024-05-09T05:46:12.197Z,10.10
2024-05-09T05:49:18.851Z,10.28
2024-05-09T05:52:25.138Z,10.42
2024-05-09T05:55:31.724Z,10.60
2024-05-09T05:58:38.132Z,10.77
2024-05-09T06:01:44.493Z,10.92
2024-05-09T06:04:46.465Z,11.09
2024-05-09T06:07:54.720Z,11.20
2024-05-09T06:11:04.217Z,11.28
2024-05-09T06:14:12.116Z,11.36
2024-05-09T06:17:18.570Z,11.52
2024-05-09T06:20:34.566Z,11.74
2024-05-09T06:23:29.953Z,11.94
2024-05-09T06:26:36.380Z,12.12
2024-05-09T06:29:42.746Z,12.27
2024-05-09T06:32:49.111Z,12.33
2024-05-09T06:35:55.311Z,12.42
2024-05-09T06:39:01.662Z,12.52
2024-05-09T06:42:08.019Z,12.64
2024-05-09T06:45:15.697Z,12.78
2024-05-09T06:48:22.919Z,12.92
2024-05-09T06:51:30.278Z,13.00
2024-05-09T06:54:36.755Z,13.18
2024-05-09T06:57:45.058Z,13.27
2024-05-09T07:00:51.898Z,13.41
2024-05-09T07:03:58.548Z,13.59
2024-05-09T07:07:04.944Z,13.80
2024-05-09T07:10:21.575Z,13.91
2024-05-09T07:13:15.874Z,14.02
2024-05-09T07:16:24.027Z,14.14
2024-05-09T07:19:30.509Z,14.24
2024-05-09T07:22:37.351Z,14.35
2024-05-09T07:25:43.837Z,14.52
2024-05-09T07:28:48.048Z,14.74
2024-05-09T07:31:54.428Z,14.87
2024-05-09T07:35:00.851Z,14.90
2024-05-09T07:38:07.365Z,14.95
2024-05-09T07:41:13.929Z,15.09
2024-05-09T07:44:22.172Z,15.27
2024-05-09T07:48:57.117Z,15.35
2024-05-09T07:52:22.951Z,15.42
2024-05-09T07:53:42.923Z,15.52
2024-05-09T07:56:40.170Z,15.67
2024-05-09T07:59:46.834Z,15.75
2024-05-09T08:02:53.629Z,15.84
2024-05-09T08:06:00.104Z,16.01
2024-05-09T08:09:13.837Z,16.06
2024-05-09T08:12:11.976Z,16.16
2024-05-09T08:15:20.034Z,16.26
2024-05-09T08:18:27.263Z,16.33
2024-05-09T08:21:34.201Z,16.50
2024-05-09T08:24:40.853Z,16.58
2024-05-09T08:27:42.360Z,16.83
2024-05-09T08:30:49.040Z,16.77
2024-05-09T08:33:57.247Z,16.93
2024-05-09T08:37:12.857Z,17.14
2024-05-09T08:40:23.615Z,17.10
2024-05-09T08:43:16.840Z,16.99
2024-05-09T08:46:27.127Z,17.08
2024-05-09T08:49:33.641Z,17.22
2024-05-09T08:52:39.640Z,17.22
2024-05-09T08:55:45.968Z,17.30
2024-05-09T08:58:53.488Z,17.54
2024-05-09T09:02:00.184Z,17.53
2024-05-09T09:05:08.380Z,17.55
2024-05-09T09:08:14.883Z,17.64
2024-05-09T09:11:18.106Z,17.70
2024-05-09T09:14:28.837Z,17.81
2024-05-09T09:17:35.486Z,17.85
2024-05-09T09:20:47.270Z,17.91
2024-05-09T09:23:55.003Z,17.95
2024-05-09T09:27:01.342Z,17.91
2024-05-09T09:30:15.608Z,18.07
2024-05-09T09:33:14.568Z,18.44
2024-05-09T09:36:22.275Z,18.62
2024-05-09T09:39:31.189Z,18.72
2024-05-09T09:42:37.958Z,19.11
2024-05-09T09:45:39.444Z,19.33
2024-05-09T09:48:46.011Z,19.28
2024-05-09T09:51:54.889Z,19.17
2024-05-09T09:55:01.637Z,19.02
2024-05-09T09:58:10.834Z,18.98
2024-05-09T10:01:19.682Z,18.84
2024-05-09T10:04:26.562Z,18.87
2024-05-09T10:07:33.119Z,18.95
2024-05-09T10:10:39.692Z,19.13
2024-05-09T10:13:46.891Z,19.05
2024-05-09T10:16:54.877Z,19.01
2024-05-09T10:20:01.266Z,19.25
2024-05-09T10:23:07.827Z,19.42
2024-05-09T10:26:14.472Z,19.23
2024-05-09T10:29:21.457Z,18.90
2024-05-09T10:32:28.117Z,18.77
2024-05-09T10:35:36.134Z,18.87
2024-05-09T10:38:42.533Z,19.33
2024-05-09T10:41:48.979Z,19.75
2024-05-09T10:44:57.468Z,19.86
2024-05-09T10:48:03.971Z,19.88
2024-05-09T10:51:10.420Z,19.88
2024-05-09T10:54:16.755Z,20.06
2024-05-09T10:57:16.945Z,20.31
2024-05-09T11:00:30.234Z,20.51
2024-05-09T11:03:27.709Z,20.27
2024-05-09T11:06:34.171Z,20.08
2024-05-09T11:09:40.494Z,20.24
2024-05-09T11:12:46.761Z,20.39
2024-05-09T11:15:55.097Z,20.89
2024-05-09T11:19:01.836Z,21.24
2024-05-09T11:22:08.442Z,21.16
2024-05-09T11:25:15.456Z,21.32
2024-05-09T11:28:22.086Z,21.53
2024-05-09T11:31:28.660Z,21.34
2024-05-09T11:34:35.225Z,21.08
2024-05-09T11:37:41.612Z,20.77
2024-05-09T11:40:49.039Z,20.58
2024-05-09T11:43:57.017Z,20.80
2024-05-09T11:47:00.481Z,21.32
2024-05-09T11:50:08.241Z,22.07
2024-05-09T11:53:16.658Z,22.25
2024-05-09T11:56:22.928Z,21.97
2024-05-09T11:59:29.123Z,21.50
2024-05-09T12:02:35.740Z,21.39
2024-05-09T12:05:43.069Z,21.57
2024-05-09T12:08:50.417Z,21.92
2024-05-09T12:11:56.836Z,21.98
2024-05-09T12:15:04.750Z,21.60
2024-05-09T12:18:12.466Z,21.27
2024-05-09T12:21:19.044Z,21.17
2024-05-09T12:24:22.271Z,21.32
2024-05-09T12:27:22.518Z,21.79
2024-05-09T12:30:36.222Z,22.43
2024-05-09T12:33:32.804Z,23.02
2024-05-09T12:36:39.293Z,22.82
2024-05-09T12:39:45.859Z,23.04
2024-05-09T12:42:52.325Z,23.11
2024-05-09T12:46:00.426Z,22.94
2024-05-09T12:49:06.992Z,22.93
2024-05-09T12:52:13.764Z,22.96
2024-05-09T12:55:20.300Z,22.84
2024-05-09T12:58:26.865Z,23.45
2024-05-09T13:01:33.458Z,23.50
2024-05-09T13:04:40.104Z,23.27
2024-05-09T13:07:46.369Z,23.55
2024-05-09T13:10:52.927Z,23.62
2024-05-09T13:14:02.647Z,23.49
2024-05-09T13:17:10.453Z,23.45
2024-05-09T13:20:26.049Z,23.42
2024-05-09T13:23:21.291Z,23.14
2024-05-09T13:26:27.861Z,23.15
2024-05-09T13:29:34.678Z,23.08
2024-05-09T13:32:41.390Z,23.53
2024-05-09T13:35:50.659Z,23.85
2024-05-09T13:38:57.653Z,23.70
2024-05-09T13:42:03.979Z,23.38
2024-05-09T13:45:12.083Z,23.20
2024-05-09T13:48:18.656Z,23.46
2024-05-09T13:51:25.495Z,23.43
2024-05-09T13:54:32.170Z,23.02
2024-05-09T13:57:38.477Z,22.97
2024-05-09T14:00:48.420Z,22.68
2024-05-09T14:03:45.276Z,22.60
2024-05-09T14:06:51.893Z,22.86
2024-05-09T14:09:58.398Z,22.84
2024-05-09T14:13:04.668Z,22.96
2024-05-09T14:16:12.933Z,23.52
2024-05-09T14:19:19.273Z,24.02
2024-05-09T14:22:25.861Z,24.23
2024-05-09T14:25:34.114Z,24.05
2024-05-09T14:28:41.447Z,24.13
2024-05-09T14:31:47.903Z,24.67
2024-05-09T14:34:55.134Z,24.32
2024-05-09T14:38:01.485Z,24.08
2024-05-09T14:41:07.733Z,24.52
2024-05-09T14:44:15.767Z,24.37
2024-05-09T14:47:23.570Z,23.75
2024-05-09T14:50:35.910Z,23.43
2024-05-09T14:53:33.873Z,23.39
2024-05-09T14:56:40.193Z,23.47
2024-05-09T14:59:46.577Z,23.47
2024-05-09T15:02:53.977Z,23.53
2024-05-09T15:06:00.347Z,23.62
2024-05-09T15:09:06.704Z,23.68
2024-05-09T15:12:13.083Z,23.70
2024-05-09T15:15:19.670Z,23.42
2024-05-09T15:18:27.645Z,23.12
2024-05-09T15:21:34.628Z,22.77
2024-05-09T15:24:42.102Z,22.44
2024-05-09T15:27:48.843Z,22.13
2024-05-09T15:30:55.604Z,22.09
2024-05-09T15:34:02.256Z,21.91
2024-05-09T15:37:08.870Z,21.92
2024-05-09T15:40:25.975Z,21.95
2024-05-09T15:43:19.517Z,22.22
2024-05-09T15:46:27.630Z,22.57
2024-05-09T15:49:28.496Z,22.43
2024-05-09T15:52:30.344Z,22.65
2024-05-09T15:55:48.881Z,23.02
2024-05-09T15:58:55.390Z,23.34
2024-05-09T16:02:01.990Z,23.35
2024-05-09T16:05:08.734Z,23.19
2024-05-09T16:08:15.579Z,23.12
2024-05-09T16:11:22.488Z,23.35
2024-05-09T16:14:28.840Z,23.29
2024-05-09T16:17:31.137Z,23.22
2024-05-09T16:20:41.763Z,23.32
2024-05-09T16:23:39.751Z,23.50
2024-05-09T16:26:50.804Z,23.35
2024-05-09T16:29:57.306Z,23.40
2024-05-09T16:33:05.139Z,23.27
2024-05-09T16:36:11.991Z,23.35
2024-05-09T16:39:18.503Z,23.26
2024-05-09T16:42:24.901Z,22.99
2024-05-09T16:45:31.574Z,23.04
2024-05-09T16:48:40.209Z,23.35
2024-05-09T16:51:47.660Z,23.58
2024-05-09T16:54:54.282Z,23.62
2024-05-09T16:58:00.772Z,23.71
2024-05-09T17:01:07.560Z,23.95
2024-05-09T17:04:14.347Z,23.87
2024-05-09T17:07:20.859Z,23.53
2024-05-09T17:10:33.006Z,23.47
2024-05-09T17:13:30.790Z,23.45
2024-05-09T17:16:38.750Z,23.26
2024-05-09T17:19:45.230Z,23.08
2024-05-09T17:22:53.679Z,22.96
2024-05-09T17:26:00.126Z,22.68
2024-05-09T17:29:09.359Z,22.39
2024-05-09T17:32:06.710Z,22.46
2024-05-09T17:35:13.185Z,22.47
2024-05-09T17:38:19.551Z,22.50
2024-05-09T17:41:25.870Z,22.50
2024-05-09T17:44:32.195Z,22.52
2024-05-09T17:47:40.200Z,22.35
2024-05-09T17:50:48.365Z,22.10
2024-05-09T17:53:54.705Z,22.01
2024-05-09T17:57:03.193Z,21.76
2024-05-09T18:00:11.803Z,21.54
2024-05-09T18:03:18.608Z,21.41
2024-05-09T18:06:25.000Z,21.23
2024-05-09T18:09:31.437Z,21.09
2024-05-09T18:12:37.994Z,20.96
2024-05-09T18:15:44.843Z,20.77
2024-05-09T18:18:52.761Z,20.62
2024-05-09T18:21:59.306Z,20.49
2024-05-09T18:25:05.843Z,20.39
2024-05-09T18:28:12.409Z,20.25
2024-05-09T18:31:18.806Z,20.05
2024-05-09T18:34:29.480Z,19.87
2024-05-09T18:37:35.983Z,19.68
2024-05-09T18:40:44.893Z,19.46
2024-05-09T18:43:45.415Z,19.25
2024-05-09T18:46:46.040Z,18.92
2024-05-09T18:49:52.540Z,18.65
2024-05-09T18:52:58.890Z,18.40
2024-05-09T18:56:05.203Z,18.18
2024-05-09T18:59:11.546Z,18.04
2024-05-09T19:02:18.075Z,17.84
2024-05-09T19:05:24.912Z,17.66
2024-05-09T19:08:31.475Z,17.47
2024-05-09T19:11:38.049Z,17.46
2024-05-09T19:14:44.611Z,17.41
2024-05-09T19:17:54.154Z,17.33
2024-05-09T19:21:00.316Z,17.28
2024-05-09T19:24:06.829Z,17.14
2024-05-09T19:27:14.748Z,16.98
2024-05-09T19:30:29.370Z,16.88
2024-05-09T19:33:24.956Z,16.80
2024-05-09T19:36:31.294Z,16.74
2024-05-09T19:39:39.153Z,16.74
2024-05-09T19:42:41.636Z,16.70
2024-05-09T19:45:51.655Z,16.63
2024-05-09T19:48:59.120Z,16.50
2024-05-09T19:52:02.003Z,16.38
2024-05-09T19:55:02.523Z,16.27
2024-05-09T19:58:05.606Z,16.26
2024-05-09T20:01:08.668Z,16.18
2024-05-09T20:04:10.634Z,16.16
2024-05-09T20:07:17.111Z,16.15
2024-05-09T20:10:26.735Z,16.04
2024-05-09T20:13:26.711Z,15.96
2024-05-09T20:16:33.156Z,15.88
2024-05-09T20:19:40.847Z,15.74
2024-05-09T20:22:49.375Z,15.66
2024-05-09T20:25:55.976Z,15.61
2024-05-09T20:29:02.164Z,15.45
2024-05-09T20:32:08.583Z,15.39
2024-05-09T20:35:14.719Z,15.30
2024-05-09T20:38:20.935Z,15.27
2024-05-09T20:41:27.189Z,15.19
2024-05-09T20:44:33.886Z,15.12
2024-05-09T20:47:37.098Z,15.03
2024-05-09T20:50:43.530Z,15.03
2024-05-09T20:53:49.767Z,14.98
2024-05-09T20:56:56.053Z,14.93
2024-05-09T21:00:03.286Z,14.84
2024-05-09T21:03:13.149Z,14.75
2024-05-09T21:06:17.439Z,14.68
2024-05-09T21:09:23.576Z,14.64
2024-05-09T21:12:29.752Z,14.54
2024-05-09T21:15:36.582Z,14.49
2024-05-09T21:18:45.568Z,14.43
2024-05-09T21:21:53.093Z,14.34
2024-05-09T21:24:59.719Z,14.29
2024-05-09T21:28:06.076Z,14.28
2024-05-09T21:31:12.542Z,14.20
2024-05-09T21:34:18.930Z,14.13
2024-05-09T21:37:25.236Z,14.07
2024-05-09T21:40:34.843Z,13.98
2024-05-09T21:43:32.090Z,13.91
2024-05-09T21:46:38.769Z,13.81
2024-05-09T21:49:48.939Z,13.74
2024-05-09T21:52:51.343Z,13.69
2024-05-09T21:55:51.325Z,13.65
2024-05-09T21:58:54.442Z,13.59
2024-05-09T22:02:04.191Z,13.55
2024-05-09T22:05:07.197Z,13.47
2024-05-09T22:08:09.368Z,13.44
2024-05-09T22:11:11.429Z,13.41
2024-05-09T22:14:14.826Z,13.37
2024-05-09T22:17:19.008Z,13.25
2024-05-09T22:20:36.554Z,13.24
2024-05-09T22:23:40.027Z,13.17
2024-05-09T22:26:41.526Z,13.11
2024-05-09T22:29:46.990Z,13.03
2024-05-09T22:32:55.865Z,13.00
2024-05-09T22:35:59.526Z,13.00
2024-05-09T22:39:07.884Z,12.99
2024-05-09T22:42:10.537Z,13.00
2024-05-09T22:45:19.710Z,13.03
2024-05-09T22:48:24.066Z,12.95
2024-05-09T22:51:33.148Z,12.89
2024-05-09T22:54:34.581Z,12.88
2024-05-09T22:57:37.384Z,12.85
2024-05-09T23:00:40.621Z,12.82
2024-05-09T23:03:44.879Z,12.89
2024-05-09T23:06:45.402Z,12.96
2024-05-09T23:09:48.381Z,12.97
2024-05-09T23:12:55.374Z,13.02
2024-05-09T23:15:57.022Z,13.00
2024-05-09T23:18:57.141Z,12.95
2024-05-09T23:21:58.295Z,12.87
2024-05-09T23:25:04.600Z,12.85
2024-05-09T23:28:05.021Z,12.85
2024-05-09T23:31:08.434Z,12.81
2024-05-09T23:34:18.077Z,12.81
2024-05-09T23:37:19.672Z,12.87
2024-05-09T23:40:36.378Z,12.96
2024-05-09T23:43:29.747Z,13.06
2024-05-09T23:46:31.219Z,13.14
2024-05-09T23:49:41.460Z,13.18
2024-05-09T23:52:42.590Z,13.18
2024-05-09T23:55:53.143Z,13.17
2024-05-09T23:58:58.005Z,13.11
